Time;durP1;ratioP1;P1;durP2;ratioP2;P2;SDS_P1;SDS_P2;PMS_P1;PMS_P2;Temp;Humidity;BMP_temperature;BMP_pressure;BME280_temperature;BME280_humidity;BME280_pressure;Samples;Min_cycle;Max_cycle;Signal;HPM_P1;HPM_P2
2024/02/10 00:00:45;;;;;;;3.30;1.60;;;17.20;59.80;;;;;;6227849;22;20167;-86
2024/02/10 00:03:12;;;;;;;2.65;1.80;;;17.10;60.10;;;;;;6201853;22;20186;-85
2024/02/10 00:05:44;;;;;;;2.17;1.77;;;17.20;60.20;;;;;;6201405;22;20160;-86
2024/02/10 00:08:12;;;;;;;3.17;1.80;;;17.20;60.20;;;;;;6204569;22;20155;-86
2024/02/10 00:15:50;;;;;;;5.47;1.83;;;17.10;59.90;;;;;;6308630;22;20203;-85
2024/02/10 00:18:18;;;;;;;1.90;1.70;;;17.20;60.10;;;;;;6224139;22;20152;-85
2024/02/10 00:20:45;;;;;;;2.03;1.63;;;17.10;60.30;;;;;;6151546;22;20144;-86
2024/02/10 00:25:38;;;;;;;2.53;1.90;;;17.20;60.40;;;;;;6269415;22;20461;-86
2024/02/10 00:28:06;;;;;;;2.55;1.90;;;17.20;59.90;;;;;;6201384;22;20468;-86
2024/02/10 00:30:32;;;;;;;2.85;1.98;;;17.20;60.10;;;;;;6201613;22;20141;-86
2024/02/10 00:32:59;;;;;;;4.22;1.80;;;17.10;60.00;;;;;;6277412;22;20137;-85
2024/02/10 00:35:25;;;;;;;2.90;2.05;;;17.20;60.20;;;;;;6225060;22;20179;-87
2024/02/10 00:37:53;;;;;;;3.17;1.85;;;17.20;60.20;;;;;;6198935;22;20156;-86
2024/02/10 00:40:19;;;;;;;2.88;2.00;;;17.10;60.00;;;;;;6250234;22;20133;-85
2024/02/10 00:42:45;;;;;;;4.30;1.88;;;17.10;60.00;;;;;;6249082;22;20223;-86
2024/02/10 00:45:15;;;;;;;6.38;1.90;;;17.10;59.90;;;;;;6225682;22;20164;-86
2024/02/10 00:47:44;;;;;;;2.33;1.65;;;17.10;59.90;;;;;;6197985;22;20202;-86
2024/02/10 00:50:11;;;;;;;4.60;2.15;;;17.10;59.80;;;;;;6225739;22;20487;-86
2024/02/10 00:52:37;;;;;;;1.98;1.60;;;17.20;59.70;;;;;;6223950;22;20141;-85
2024/02/10 00:55:03;;;;;;;2.53;1.75;;;17.10;59.90;;;;;;6224413;22;20168;-86
2024/02/10 00:57:29;;;;;;;3.33;1.90;;;17.10;60.90;;;;;;6249539;22;20202;-86
2024/02/10 01:02:21;;;;;;;3.67;2.00;;;17.10;59.90;;;;;;6306769;22;20199;-86
2024/02/10 01:04:53;;;;;;;2.97;2.20;;;17.10;59.70;;;;;;6306471;22;20141;-86
2024/02/10 01:07:19;;;;;;;3.05;2.00;;;17.10;59.80;;;;;;6256903;22;20661;-86
2024/02/10 01:09:47;;;;;;;2.30;1.80;;;17.10;59.80;;;;;;6255519;22;20177;-85
2024/02/10 01:12:14;;;;;;;1.83;1.63;;;17.10;59.90;;;;;;6256912;22;20136;-86
2024/02/10 01:14:40;;;;;;;2.58;2.00;;;17.10;60.00;;;;;;6255546;22;20144;-86
2024/02/10 01:17:11;;;;;;;2.63;1.70;;;17.10;59.70;;;;;;6280351;22;20183;-86
2024/02/10 01:19:46;;;;;;;3.22;2.05;;;17.10;59.60;;;;;;6274995;22;21103;-86
2024/02/10 01:22:17;;;;;;;2.75;1.85;;;17.10;59.60;;;;;;6227210;22;20162;-85
2024/02/10 01:24:45;;;;;;;3.20;1.90;;;17.00;59.80;;;;;;6225540;22;20157;-85
2024/02/10 01:27:12;;;;;;;3.83;2.15;;;17.10;59.70;;;;;;6199155;22;20472;-85
2024/02/10 01:29:38;;;;;;;2.00;1.48;;;17.10;59.60;;;;;;6223409;22;20224;-85
2024/02/10 01:32:05;;;;;;;2.15;1.77;;;17.10;59.80;;;;;;6276212;22;20128;-86
2024/02/10 01:37:07;;;;;;;3.35;2.20;;;17.00;59.70;;;;;;6302187;22;20203;-85
2024/02/10 01:39:34;;;;;;;3.58;1.80;;;17.10;59.60;;;;;;6255249;22;20144;-86
2024/02/10 01:44:35;;;;;;;3.20;2.00;;;17.00;59.70;;;;;;6300321;22;20260;-86
2024/02/10 01:47:01;;;;;;;2.78;2.10;;;17.10;59.60;;;;;;6262404;22;20192;-86
2024/02/10 01:51:54;;;;;;;2.17;1.80;;;17.00;59.70;;;;;;6304303;22;20643;-86
2024/02/10 01:54:21;;;;;;;2.67;1.85;;;17.00;59.70;;;;;;6229150;22;20147;-86
2024/02/10 01:56:46;;;;;;;2.97;1.95;;;17.00;59.60;;;;;;6228040;22;20218;-86
2024/02/10 01:59:12;;;;;;;3.30;2.05;;;17.00;59.40;;;;;;6286248;22;20152;-86
2024/02/10 02:01:38;;;;;;;2.63;1.73;;;17.10;59.30;;;;;;6285945;22;20128;-85
2024/02/10 02:04:05;;;;;;;2.22;1.60;;;17.10;59.60;;;;;;6260509;22;20567;-86
2024/02/10 02:06:31;;;;;;;5.28;2.00;;;17.10;59.40;;;;;;6312220;22;20131;-86
2024/02/10 02:09:00;;;;;;;3.15;1.75;;;17.00;59.40;;;;;;6260994;22;20159;-86
2024/02/10 02:11:28;;;;;;;2.38;1.80;;;17.10;59.60;;;;;;6262057;22;20154;-86
2024/02/10 02:14:00;;;;;;;2.60;1.88;;;17.00;59.60;;;;;;6286249;22;20151;-86
2024/02/10 02:16:28;;;;;;;2.40;1.85;;;17.00;59.30;;;;;;6287301;22;20170;-86
2024/02/10 02:18:57;;;;;;;2.58;2.15;;;17.00;59.50;;;;;;6284205;22;20617;-86
2024/02/10 02:21:27;;;;;;;4.82;2.20;;;17.00;59.50;;;;;;6311753;22;20181;-86
2024/02/10 02:23:55;;;;;;;4.63;2.28;;;17.00;59.50;;;;;;6259340;22;20570;-86
2024/02/10 02:26:23;;;;;;;2.47;1.60;;;17.00;59.30;;;;;;6232949;22;20158;-85
2024/02/10 02:28:51;;;;;;;2.65;2.17;;;17.00;59.40;;;;;;6232787;22;20147;-86
2024/02/10 02:31:19;;;;;;;2.65;1.83;;;17.00;59.30;;;;;;6257597;22;20167;-86
2024/02/10 02:33:47;;;;;;;2.92;1.90;;;17.10;59.40;;;;;;6232192;22;20212;-86
2024/02/10 02:36:17;;;;;;;2.08;1.75;;;17.00;59.20;;;;;;6256935;22;20183;-85
2024/02/10 02:38:43;;;;;;;2.60;1.88;;;17.00;59.20;;;;;;6260248;22;20186;-86
2024/02/10 02:43:45;;;;;;;3.33;2.20;;;17.00;59.20;;;;;;6306570;22;20572;-85
2024/02/10 02:48:36;;;;;;;3.50;2.10;;;17.00;59.30;;;;;;6305875;22;20203;-86
2024/02/10 02:51:02;;;;;;;2.70;2.00;;;17.00;59.10;;;;;;6279144;22;20465;-86
2024/02/10 02:53:31;;;;;;;2.33;1.88;;;17.00;59.10;;;;;;6277853;22;20147;-85
2024/02/10 02:55:58;;;;;;;2.47;1.80;;;17.00;59.30;;;;;;6279540;22;20183;-85
2024/02/10 02:58:24;;;;;;;3.33;2.20;;;16.90;59.30;;;;;;6229230;22;20158;-85
2024/02/10 03:08:16;;;;;;;2.28;1.92;;;17.00;59.10;;;;;;6307047;22;20203;-85
2024/02/10 03:10:42;;;;;;;2.70;1.90;;;16.90;59.10;;;;;;6253269;22;20546;-86
2024/02/10 03:13:08;;;;;;;2.33;1.92;;;17.00;59.10;;;;;;6278901;22;20128;-85
2024/02/10 03:15:37;;;;;;;2.28;1.92;;;17.00;59.30;;;;;;6278729;22;20265;-86
2024/02/10 03:18:04;;;;;;;3.97;2.08;;;16.90;59.20;;;;;;6280864;22;20128;-86
2024/02/10 03:20:30;;;;;;;2.97;2.00;;;17.00;59.40;;;;;;6280891;22;20128;-86
2024/02/10 03:23:03;;;;;;;2.55;1.95;;;17.00;59.20;;;;;;6279829;22;20197;-86
2024/02/10 03:25:30;;;;;;;2.70;2.03;;;16.90;59.10;;;;;;6281875;22;20211;-86
2024/02/10 03:27:56;;;;;;;2.53;1.83;;;16.90;59.00;;;;;;6255476;22;20140;-86
2024/02/10 03:30:23;;;;;;;2.50;2.10;;;16.90;59.20;;;;;;6254591;22;20140;-87
2024/02/10 03:32:53;;;;;;;2.38;1.83;;;17.00;59.10;;;;;;6229812;22;20140;-86
2024/02/10 03:35:20;;;;;;;2.35;2.05;;;17.00;59.10;;;;;;6224645;22;20192;-86
2024/02/10 03:37:46;;;;;;;3.22;2.05;;;16.90;59.30;;;;;;6249683;22;20144;-86
2024/02/10 03:40:19;;;;;;;3.53;2.28;;;16.90;59.00;;;;;;6249847;22;20148;-86
2024/02/10 03:42:46;;;;;;;2.15;1.70;;;17.00;59.10;;;;;;6251306;22;20128;-86
2024/02/10 03:45:14;;;;;;;2.53;1.88;;;16.90;59.20;;;;;;6223281;22;20152;-86
2024/02/10 03:47:42;;;;;;;2.80;1.90;;;16.90;59.00;;;;;;6275093;22;20148;-86
2024/02/10 03:50:11;;;;;;;2.58;2.15;;;16.90;59.00;;;;;;6249937;22;20148;-86
2024/02/10 04:01:55;;;;;;;2.42;2.05;;;17.00;59.00;;;;;;6299995;22;20206;-86
2024/02/10 04:04:21;;;;;;;2.30;1.98;;;16.90;58.80;;;;;;6231018;22;20144;-86
2024/02/10 04:06:47;;;;;;;2.35;2.08;;;16.90;58.90;;;;;;6280535;22;20252;-87
2024/02/10 04:09:13;;;;;;;2.88;2.00;;;16.90;59.00;;;;;;6255334;22;20219;-86
2024/02/10 04:11:40;;;;;;;2.22;1.85;;;16.90;58.80;;;;;;6230042;22;20164;-86
2024/02/10 04:14:06;;;;;;;3.05;2.20;;;16.90;58.70;;;;;;6255333;22;20543;-85
2024/02/10 04:16:33;;;;;;;2.55;1.80;;;16.90;58.80;;;;;;6280167;22;20168;-86
2024/02/10 04:19:01;;;;;;;2.97;2.20;;;17.00;58.90;;;;;;6306229;22;20171;-85
2024/02/10 04:21:27;;;;;;;2.63;1.98;;;16.90;58.90;;;;;;6281249;22;20272;-86
2024/02/10 04:23:53;;;;;;;2.65;2.00;;;16.90;58.90;;;;;;6280233;22;20132;-85
2024/02/10 04:26:19;;;;;;;2.78;2.05;;;17.00;58.80;;;;;;6248119;22;20270;-85
2024/02/10 04:31:13;;;;;;;2.60;2.00;;;16.90;58.90;;;;;;6299556;22;20314;-85
2024/02/10 04:36:14;;;;;;;2.47;1.90;;;16.90;58.80;;;;;;6289654;22;20203;-86
2024/02/10 04:38:40;;;;;;;2.30;1.80;;;16.90;58.70;;;;;;6255116;22;20148;-86
2024/02/10 04:41:06;;;;;;;3.13;2.00;;;16.90;58.90;;;;;;6280397;22;20251;-86
2024/02/10 04:43:32;;;;;;;2.70;1.90;;;16.90;58.70;;;;;;6280389;22;20219;-86
2024/02/10 04:45:58;;;;;;;2.78;2.20;;;16.90;58.90;;;;;;6280653;22;20136;-86
2024/02/10 04:48:25;;;;;;;3.13;1.90;;;16.90;58.70;;;;;;6262238;22;20202;-86
2024/02/10 04:50:57;;;;;;;3.20;2.20;;;16.90;58.50;;;;;;6312282;22;20150;-86
2024/02/10 04:53:25;;;;;;;3.45;2.00;;;16.90;58.70;;;;;;6311549;22;20586;-86
2024/02/10 04:55:51;;;;;;;2.90;2.10;;;16.90;58.80;;;;;;6285303;22;20521;-86
2024/02/10 04:58:19;;;;;;;2.58;2.00;;;16.90;58.70;;;;;;6310464;22;20128;-86
2024/02/10 05:00:49;;;;;;;2.38;1.80;;;16.90;58.80;;;;;;6285092;22;20143;-85
2024/02/10 05:03:15;;;;;;;2.65;1.95;;;16.90;58.70;;;;;;6232973;22;20647;-85
2024/02/10 05:05:41;;;;;;;2.83;1.98;;;16.90;58.60;;;;;;6311435;22;20458;-85
2024/02/10 05:08:12;;;;;;;3.38;2.30;;;16.90;58.70;;;;;;6310841;22;20186;-86
2024/02/10 05:10:40;;;;;;;3.05;2.03;;;16.90;58.60;;;;;;6287587;22;20532;-85
2024/02/10 05:13:07;;;;;;;2.85;2.30;;;16.90;58.60;;;;;;6286922;22;20131;-85
2024/02/10 05:31:05;;;;;;;3.83;2.13;;;16.90;58.60;;;;;;6278442;22;20172;-87
2024/02/10 05:33:32;;;;;;;2.20;2.00;;;16.90;58.30;;;;;;6230671;22;20226;-86
2024/02/10 05:36:01;;;;;;;3.00;2.05;;;16.90;58.60;;;;;;6228918;22;20679;-87
2024/02/10 05:38:31;;;;;;;2.20;1.83;;;16.90;58.50;;;;;;6203403;22;20152;-86
2024/02/10 05:41:04;;;;;;;3.15;2.15;;;16.90;58.60;;;;;;6227513;22;20251;-86
2024/02/10 05:43:33;;;;;;;2.95;1.92;;;16.90;58.60;;;;;;6206108;22;20144;-87
2024/02/10 05:46:04;;;;;;;2.17;1.75;;;16.90;58.50;;;;;;6178275;22;20148;-86
2024/02/10 05:48:32;;;;;;;2.38;2.05;;;16.90;58.70;;;;;;6204970;22;20151;-86
2024/02/10 05:51:01;;;;;;;3.38;2.45;;;16.80;58.70;;;;;;6202763;22;20148;-86
2024/02/10 05:53:27;;;;;;;3.78;2.20;;;16.80;58.60;;;;;;6203489;22;20210;-86
2024/02/10 05:55:54;;;;;;;2.40;1.95;;;16.90;58.50;;;;;;6253493;22;20534;-86
2024/02/10 05:58:23;;;;;;;4.28;2.20;;;16.90;58.70;;;;;;6228997;22;20167;-87
2024/02/10 06:00:51;;;;;;;2.40;2.00;;;16.90;58.50;;;;;;6255808;22;20156;-87
2024/02/10 06:03:18;;;;;;;3.70;2.20;;;16.90;58.60;;;;;;6256284;22;20551;-87
2024/02/10 06:05:44;;;;;;;2.95;2.08;;;16.90;58.50;;;;;;6230480;22;20147;-87
2024/02/10 06:08:12;;;;;;;3.90;2.17;;;16.90;58.40;;;;;;6231055;22;20504;-87
2024/02/10 06:10:43;;;;;;;2.50;2.10;;;16.80;58.40;;;;;;6230930;22;20162;-87
2024/02/10 06:13:09;;;;;;;2.38;1.98;;;16.90;58.50;;;;;;6206510;22;20156;-87
2024/02/10 06:15:36;;;;;;;2.80;2.22;;;16.90;58.30;;;;;;6254641;22;20168;-86
2024/02/10 06:18:03;;;;;;;2.83;2.00;;;16.90;58.10;;;;;;6203282;22;20479;-87
2024/02/10 06:20:29;;;;;;;3.10;2.25;;;16.90;58.30;;;;;;6228265;22;20482;-87
2024/02/10 06:22:55;;;;;;;2.22;2.00;;;16.90;58.10;;;;;;6255871;22;20156;-86
2024/02/10 06:25:22;;;;;;;3.22;2.15;;;16.90;58.20;;;;;;6229292;22;20166;-86
2024/02/10 06:27:51;;;;;;;2.50;1.92;;;16.90;58.00;;;;;;6228892;22;20571;-86
2024/02/10 06:30:17;;;;;;;2.80;2.03;;;16.90;58.10;;;;;;6255350;22;20152;-86
2024/02/10 06:32:43;;;;;;;3.50;2.17;;;16.90;58.20;;;;;;6253382;22;20647;-87
2024/02/10 06:35:13;;;;;;;2.95;2.10;;;16.90;58.20;;;;;;6227102;22;20140;-86
2024/02/10 06:37:46;;;;;;;4.18;2.03;;;16.80;58.20;;;;;;6250928;22;20152;-87
2024/02/10 06:40:14;;;;;;;2.67;2.28;;;16.90;58.30;;;;;;6203091;22;20175;-87
2024/02/10 06:42:42;;;;;;;3.45;2.28;;;16.90;58.30;;;;;;6231177;22;20172;-87
2024/02/10 06:45:14;;;;;;;3.03;2.25;;;16.90;58.30;;;;;;6230470;22;20136;-87
2024/02/10 06:47:43;;;;;;;2.60;2.13;;;16.90;58.30;;;;;;6207726;22;20483;-87
2024/02/10 06:50:11;;;;;;;2.70;2.13;;;16.90;58.20;;;;;;6202785;22;20159;-87
2024/02/10 06:52:37;;;;;;;3.33;2.38;;;16.90;58.30;;;;;;6253859;22;20605;-87
2024/02/10 06:55:07;;;;;;;3.35;2.20;;;16.90;58.10;;;;;;6255264;22;20455;-86
2024/02/10 06:57:33;;;;;;;3.28;2.10;;;17.00;58.20;;;;;;6254310;22;20136;-87
2024/02/10 07:00:10;;;;;;;2.92;2.30;;;16.90;58.00;;;;;;6230170;22;20136;-88
2024/02/10 07:02:39;;;;;;;2.53;1.90;;;16.90;58.00;;;;;;6256511;22;20136;-87
2024/02/10 07:05:05;;;;;;;3.75;2.55;;;16.90;58.00;;;;;;6229400;22;20587;-87
2024/02/10 07:07:32;;;;;;;2.85;2.25;;;16.90;58.00;;;;;;6228488;22;20227;-86
2024/02/10 07:10:00;;;;;;;2.92;2.42;;;16.80;57.80;;;;;;6242530;22;21893;-85
2024/02/10 07:17:27;;;;;;;2.40;1.92;;;16.90;58.10;;;;;;6304540;22;20204;-85
2024/02/10 07:19:53;;;;;;;2.42;1.90;;;16.90;58.00;;;;;;6254077;22;20144;-86
2024/02/10 07:22:19;;;;;;;2.35;1.85;;;16.90;58.00;;;;;;6253931;22;20148;-86
2024/02/10 07:24:46;;;;;;;2.65;2.28;;;16.80;58.00;;;;;;6280528;22;20136;-86
2024/02/10 07:27:17;;;;;;;2.50;1.98;;;16.80;58.00;;;;;;6252575;22;22167;-85
2024/02/10 07:29:45;;;;;;;2.78;2.22;;;16.80;58.00;;;;;;6255383;22;20164;-87
2024/02/10 07:32:14;;;;;;;2.33;1.92;;;16.90;58.10;;;;;;6254631;22;20590;-87
2024/02/10 07:34:40;;;;;;;3.08;2.25;;;16.80;58.20;;;;;;6253427;22;20137;-87
2024/02/10 07:37:07;;;;;;;2.30;2.00;;;16.90;58.20;;;;;;6228086;22;20214;-87
2024/02/10 07:39:33;;;;;;;2.80;2.25;;;16.80;58.20;;;;;;6279083;22;20156;-86
2024/02/10 07:42:01;;;;;;;2.70;2.10;;;16.90;58.10;;;;;;6253035;22;20170;-86
2024/02/10 07:44:27;;;;;;;2.88;2.17;;;16.90;58.00;;;;;;6228682;22;20144;-88
2024/02/10 07:46:55;;;;;;;3.35;2.20;;;16.90;58.00;;;;;;6253755;22;20465;-88
2024/02/10 07:49:26;;;;;;;3.00;1.83;;;16.90;58.10;;;;;;6229814;22;20147;-87
2024/02/10 07:51:53;;;;;;;3.10;2.10;;;16.90;58.00;;;;;;6254883;22;20136;-87
2024/02/10 07:56:46;;;;;;;3.70;2.53;;;16.90;57.70;;;;;;6305781;22;20203;-88
2024/02/10 07:59:18;;;;;;;2.25;1.90;;;17.00;57.60;;;;;;6265611;22;20208;-88
2024/02/10 08:04:09;;;;;;;2.90;2.15;;;17.00;57.50;;;;;;6288777;22;20199;-85
2024/02/10 08:06:36;;;;;;;3.75;2.35;;;17.00;57.50;;;;;;6253919;22;20144;-88
2024/02/10 08:09:07;;;;;;;2.67;2.10;;;17.00;57.50;;;;;;6280295;22;20133;-87
2024/02/10 08:11:33;;;;;;;2.72;2.10;;;17.00;57.10;;;;;;6228002;22;20231;-87
2024/02/10 08:14:00;;;;;;;2.90;2.00;;;17.00;57.10;;;;;;6254094;22;20515;-88
2024/02/10 08:16:31;;;;;;;3.10;2.10;;;17.10;57.00;;;;;;6254028;22;20225;-88
2024/02/10 08:18:59;;;;;;;2.78;2.00;;;17.10;57.30;;;;;;6228302;22;20152;-88
2024/02/10 08:21:26;;;;;;;3.08;1.98;;;17.20;57.00;;;;;;6281677;22;20147;-89
2024/02/10 08:23:52;;;;;;;3.35;2.13;;;17.10;56.70;;;;;;6229386;22;20278;-88
2024/02/10 08:26:19;;;;;;;2.85;2.20;;;17.20;56.40;;;;;;6254228;22;20144;-87
2024/02/10 08:28:47;;;;;;;3.50;2.08;;;17.20;56.60;;;;;;6255622;22;20155;-88
2024/02/10 08:31:15;;;;;;;3.50;2.30;;;17.20;56.60;;;;;;6231214;22;20140;-87
2024/02/10 08:33:44;;;;;;;2.97;2.20;;;17.30;56.50;;;;;;6231975;22;20144;-87
2024/02/10 08:36:13;;;;;;;3.53;2.22;;;17.20;56.50;;;;;;6232142;22;20197;-88
2024/02/10 08:38:43;;;;;;;4.72;2.10;;;17.20;56.50;;;;;;6257743;22;20128;-88
2024/02/10 08:41:10;;;;;;;6.25;2.20;;;17.20;56.90;;;;;;6256811;22;20151;-88
2024/02/10 08:43:36;;;;;;;3.45;2.00;;;17.30;57.10;;;;;;6281758;22;20132;-88
2024/02/10 08:46:03;;;;;;;3.20;2.00;;;17.20;57.10;;;;;;6258127;22;20619;-88
2024/02/10 08:48:29;;;;;;;6.38;2.35;;;17.20;57.40;;;;;;6231553;22;20185;-87
2024/02/10 08:50:55;;;;;;;3.67;2.00;;;17.20;57.70;;;;;;6231715;22;20147;-88
2024/02/10 08:53:22;;;;;;;2.95;2.08;;;17.20;57.20;;;;;;6231179;22;20144;-88
2024/02/10 08:55:51;;;;;;;4.47;1.98;;;17.20;56.90;;;;;;6258124;22;20156;-88
2024/02/10 08:58:19;;;;;;;6.15;2.42;;;17.30;56.50;;;;;;6231733;22;20591;-87
2024/02/10 09:00:45;;;;;;;4.20;2.10;;;17.30;57.30;;;;;;6231991;22;20198;-87
2024/02/10 09:03:13;;;;;;;4.30;2.10;;;17.30;57.20;;;;;;6258027;22;20501;-87
2024/02/10 09:06:14;;;;;;;;;;;;;;;;;;;;;
2024/02/10 09:08:44;;;;;;;3.20;1.90;;;17.40;56.10;;;;;;6254963;22;20532;-88
2024/02/10 09:11:09;;;;;;;6.72;2.15;;;17.40;55.90;;;;;;6234223;22;20136;-89
2024/02/10 09:13:38;;;;;;;2.42;1.90;;;17.50;55.50;;;;;;6308550;22;20145;-88
2024/02/10 09:16:05;;;;;;;3.50;2.00;;;17.50;55.50;;;;;;6256561;22;20519;-87
2024/02/10 09:18:30;;;;;;;3.42;1.92;;;17.50;56.10;;;;;;6256243;22;20121;-89
2024/02/10 09:21:02;;;;;;;3.33;2.05;;;17.40;55.80;;;;;;6231293;22;20132;-87
2024/02/10 09:23:29;;;;;;;4.97;1.80;;;17.40;56.00;;;;;;6231891;22;20140;-89
2024/02/10 09:25:58;;;;;;;2.38;1.80;;;17.40;55.40;;;;;;6282844;22;20138;-89
2024/02/10 09:28:29;;;;;;;3.20;1.80;;;17.40;56.00;;;;;;6312282;22;20140;-87
2024/02/10 09:30:55;;;;;;;3.13;2.13;;;17.40;56.00;;;;;;6261706;22;20143;-88
2024/02/10 09:33:21;;;;;;;3.72;2.15;;;17.40;55.90;;;;;;6259602;22;20219;-86
2024/02/10 09:35:50;;;;;;;7.35;1.80;;;17.50;55.90;;;;;;6258673;22;20235;-87
2024/02/10 09:38:22;;;;;;;5.03;2.25;;;17.40;55.90;;;;;;6233247;22;20140;-88
2024/02/10 09:40:48;;;;;;;4.00;2.05;;;17.40;56.70;;;;;;6309243;22;20223;-87
2024/02/10 09:43:15;;;;;;;8.02;2.20;;;17.50;55.70;;;;;;6233218;22;20132;-87
2024/02/10 09:45:45;;;;;;;7.35;2.20;;;17.40;56.40;;;;;;6283409;22;20135;-86
2024/02/10 09:48:15;;;;;;;4.65;2.28;;;17.50;56.60;;;;;;6235003;22;20482;-86
2024/02/10 09:50:41;;;;;;;9.30;2.38;;;17.50;56.60;;;;;;6236033;22;20659;-86
2024/02/10 09:53:07;;;;;;;5.50;2.30;;;17.50;55.90;;;;;;6260999;22;20590;-88
2024/02/10 09:55:37;;;;;;;8.20;2.10;;;17.50;56.20;;;;;;6261341;22;20163;-87
2024/02/10 09:58:07;;;;;;;7.20;2.20;;;17.40;57.00;;;;;;6311976;22;20136;-86
2024/02/10 10:01:02;;;;;;;6.53;2.10;;;17.40;56.90;;;;;;6263404;22;20220;-89
2024/02/10 10:03:31;;;;;;;5.78;2.30;;;17.50;56.60;;;;;;6279410;22;20221;-87
2024/02/10 10:05:59;;;;;;;14.02;2.42;;;17.60;56.60;;;;;;6228473;22;20670;-86
2024/02/10 10:08:34;;;;;;;7.47;2.20;;;17.60;56.70;;;;;;6229652;22;20164;-87
2024/02/10 10:11:01;;;;;;;11.93;2.38;;;17.60;57.00;;;;;;6164870;23;20154;-86
2024/02/10 10:13:28;;;;;;;9.80;2.20;;;17.60;56.60;;;;;;6165767;23;20197;-84
2024/02/10 10:15:53;;;;;;;6.55;2.00;;;17.70;55.50;;;;;;6165302;23;20704;-84
2024/02/10 10:18:20;;;;;;;3.78;2.13;;;17.70;55.70;;;;;;6165025;23;20135;-84
2024/02/10 10:20:49;;;;;;;7.78;1.83;;;17.80;55.20;;;;;;6141046;23;20182;-85
2024/02/10 10:23:16;;;;;;;8.88;2.00;;;17.80;55.90;;;;;;6140657;23;20143;-85
2024/02/10 10:25:53;;;;;;;7.90;2.13;;;17.80;56.70;;;;;;6164825;23;20185;-84
2024/02/10 10:28:20;;;;;;;3.67;2.20;;;17.80;57.00;;;;;;6144155;23;20177;-84
2024/02/10 10:31:01;;;;;;;5.97;1.83;;;17.90;55.80;;;;;;6164853;23;20154;-84
2024/02/10 10:33:27;;;;;;;5.60;2.40;;;17.90;55.80;;;;;;6103762;23;20513;-86
2024/02/10 10:35:54;;;;;;;8.55;2.40;;;18.00;57.10;;;;;;6140991;23;20186;-84
2024/02/10 10:38:22;;;;;;;8.38;2.15;;;17.90;56.60;;;;;;6140058;23;20233;-86
2024/02/10 10:40:52;;;;;;;4.50;1.73;;;17.90;57.00;;;;;;6165092;23;20147;-87
2024/02/10 10:43:19;;;;;;;8.68;2.20;;;17.80;56.80;;;;;;6225081;23;20146;-85
2024/02/10 10:45:46;;;;;;;6.22;2.15;;;17.90;57.20;;;;;;6223382;23;20137;-85
2024/02/10 10:48:13;;;;;;;7.97;2.33;;;17.90;57.00;;;;;;6224969;23;20214;-86
2024/02/10 10:50:40;;;;;;;4.75;1.90;;;17.90;57.50;;;;;;6224692;23;20239;-87
2024/02/10 10:53:09;;;;;;;6.63;2.42;;;17.80;57.70;;;;;;6200553;23;20284;-88
2024/02/10 10:55:48;;;;;;;13.43;2.40;;;17.90;57.70;;;;;;6223755;23;20177;-86
2024/02/10 10:58:18;;;;;;;9.98;2.20;;;17.90;58.40;;;;;;6251599;23;20137;-85
2024/02/10 11:00:47;;;;;;;9.35;2.10;;;17.90;57.70;;;;;;6223760;23;20153;-88
2024/02/10 11:03:14;;;;;;;5.65;2.22;;;18.00;58.00;;;;;;6222982;23;20158;-86
2024/02/10 11:05:47;;;;;;;6.57;2.33;;;18.00;58.20;;;;;;6224080;23;20165;-84
2024/02/10 11:08:27;;;;;;;7.80;2.05;;;18.00;58.00;;;;;;6226524;23;20216;-85
2024/02/10 11:11:03;;;;;;;9.15;2.15;;;18.00;57.80;;;;;;6228019;23;20283;-85
2024/02/10 11:13:31;;;;;;;5.03;2.00;;;17.90;58.90;;;;;;6229794;22;20161;-86
2024/02/10 11:16:17;;;;;;;7.07;2.10;;;18.00;58.90;;;;;;6262026;22;20209;-87
2024/02/10 11:19:00;;;;;;;7.82;1.90;;;18.00;58.20;;;;;;6145251;23;20162;-86
2024/02/10 11:21:34;;;;;;;3.38;2.20;;;18.00;57.60;;;;;;6138904;23;20151;-86
2024/02/10 11:24:17;;;;;;;5.00;2.22;;;18.00;58.20;;;;;;6139599;23;20151;-86
2024/02/10 11:26:53;;;;;;;5.07;2.03;;;18.10;57.90;;;;;;6093411;23;20286;-85
2024/02/10 11:29:39;;;;;;;6.88;2.15;;;18.00;58.80;;;;;;6115011;23;20154;-86
2024/02/10 11:32:13;;;;;;;5.50;2.03;;;18.10;59.20;;;;;;6120524;23;20154;-87
2024/02/10 11:34:49;;;;;;;10.10;2.00;;;18.10;57.80;;;;;;6138566;23;20154;-85
2024/02/10 11:37:55;;;;;;;4.53;1.88;;;18.10;57.80;;;;;;6137234;23;20197;-88
2024/02/10 11:40:21;;;;;;;8.93;2.20;;;18.20;56.90;;;;;;6077230;23;20834;-87
2024/02/10 11:42:47;;;;;;;6.80;2.28;;;18.20;58.90;;;;;;6076015;23;20204;-88
2024/02/10 11:45:17;;;;;;;7.85;2.00;;;18.10;57.90;;;;;;6074227;23;20239;-89
2024/02/10 11:47:53;;;;;;;6.45;2.40;;;18.10;58.40;;;;;;6072800;23;20152;-87
2024/02/10 11:50:20;;;;;;;7.03;2.10;;;18.10;57.20;;;;;;6114535;23;20159;-86
2024/02/10 11:52:49;;;;;;;10.80;2.22;;;18.20;57.50;;;;;;6128335;23;20194;-87
2024/02/10 11:55:19;;;;;;;9.20;2.42;;;18.20;57.80;;;;;;6280538;22;20576;-87
2024/02/10 11:57:45;;;;;;;8.95;2.08;;;18.20;58.80;;;;;;6180590;22;20166;-87
2024/02/10 12:00:15;;;;;;;10.90;2.72;;;18.10;58.00;;;;;;6192540;23;20236;-85
2024/02/10 12:02:43;;;;;;;11.82;2.20;;;18.10;58.90;;;;;;6219247;23;20595;-86
2024/02/10 12:05:13;;;;;;;4.25;2.00;;;18.10;59.60;;;;;;6194833;23;20153;-87
2024/02/10 12:07:43;;;;;;;15.32;2.35;;;18.10;58.50;;;;;;6173000;23;20153;-87
2024/02/10 12:10:11;;;;;;;13.35;2.72;;;18.10;58.50;;;;;;6172499;23;20149;-88
2024/02/10 12:12:37;;;;;;;11.40;2.60;;;18.10;59.30;;;;;;6199125;23;20141;-87
2024/02/10 12:15:03;;;;;;;18.13;2.45;;;18.20;60.50;;;;;;6197907;23;20187;-86
2024/02/10 12:17:30;;;;;;;10.52;2.15;;;18.10;59.00;;;;;;6222140;23;20173;-87
2024/02/10 12:19:57;;;;;;;10.15;2.50;;;18.10;59.40;;;;;;6170918;23;20161;-87
2024/02/10 12:22:27;;;;;;;10.80;2.63;;;18.00;59.50;;;;;;6223027;23;20142;-87
2024/02/10 12:24:53;;;;;;;7.88;1.90;;;18.10;59.10;;;;;;6172513;23;20253;-88
2024/02/10 12:27:25;;;;;;;9.35;2.28;;;18.10;59.80;;;;;;6221870;23;20141;-86
2024/02/10 12:29:51;;;;;;;4.90;2.25;;;18.10;57.80;;;;;;6198742;23;20141;-86
2024/02/10 12:32:17;;;;;;;9.85;2.80;;;18.10;58.20;;;;;;6231118;22;20638;-87
2024/02/10 12:34:44;;;;;;;12.82;2.17;;;18.10;58.30;;;;;;6263215;22;20227;-86
2024/02/10 12:37:14;;;;;;;6.25;2.17;;;18.00;59.30;;;;;;6260520;22;20164;-87
2024/02/10 12:39:40;;;;;;;12.98;2.72;;;18.00;58.90;;;;;;6233955;22;20155;-87
2024/02/10 12:42:09;;;;;;;5.40;2.33;;;18.10;58.80;;;;;;6261299;22;20198;-88
2024/02/10 12:44:37;;;;;;;4.63;2.13;;;18.10;58.50;;;;;;6261921;22;20208;-88
2024/02/10 12:47:04;;;;;;;7.22;2.03;;;18.00;58.30;;;;;;6263691;22;20635;-86
2024/02/10 12:49:32;;;;;;;9.35;2.03;;;18.00;57.80;;;;;;6286501;22;20144;-86
2024/02/10 12:51:59;;;;;;;5.60;2.10;;;18.00;58.90;;;;;;6258893;22;20162;-88
2024/02/10 12:54:27;;;;;;;8.75;2.03;;;18.00;58.60;;;;;;6256727;22;20257;-87
2024/02/10 12:56:54;;;;;;;7.35;2.33;;;18.00;58.90;;;;;;6258490;22;20614;-87
2024/02/10 12:59:24;;;;;;;9.20;2.38;;;18.00;56.80;;;;;;6258765;22;20136;-89
2024/02/10 13:01:50;;;;;;;7.00;1.98;;;18.00;59.70;;;;;;6260759;22;20168;-86
2024/02/10 13:04:17;;;;;;;8.65;1.90;;;18.00;59.60;;;;;;6286706;22;20632;-87
2024/02/10 13:06:47;;;;;;;6.72;1.83;;;18.00;58.70;;;;;;6288206;22;20124;-88
2024/02/10 13:09:13;;;;;;;6.22;2.30;;;18.10;58.40;;;;;;6284458;22;20404;-87
2024/02/10 13:11:38;;;;;;;3.70;2.00;;;18.00;58.80;;;;;;6284765;22;20144;-86
2024/02/10 13:14:04;;;;;;;5.90;2.20;;;18.10;58.70;;;;;;6286824;22;20141;-87
2024/02/10 13:16:31;;;;;;;5.43;2.20;;;18.00;60.00;;;;;;6286397;22;20250;-88
2024/02/10 13:18:58;;;;;;;10.18;2.30;;;18.00;59.20;;;;;;6256838;22;20197;-88
2024/02/10 13:21:28;;;;;;;8.65;2.20;;;18.10;58.30;;;;;;6283672;22;20575;-87
2024/02/10 13:23:54;;;;;;;5.70;1.90;;;18.00;58.90;;;;;;6258800;22;20250;-87
2024/02/10 13:26:21;;;;;;;7.75;1.85;;;18.10;58.80;;;;;;6282227;22;20572;-87
2024/02/10 13:28:48;;;;;;;8.10;2.00;;;18.10;59.20;;;;;;6255885;22;20202;-86
2024/02/10 13:31:18;;;;;;;7.47;2.45;;;18.00;59.10;;;;;;6255057;22;20149;-86
2024/02/10 13:33:44;;;;;;;6.05;1.88;;;18.00;59.40;;;;;;6283176;22;20151;-85
2024/02/10 13:36:15;;;;;;;4.57;1.90;;;18.00;59.50;;;;;;6257918;22;20175;-88
2024/02/10 14:00:36;;;;;;;4.55;1.90;;;18.00;59.30;;;;;;6117343;23;20161;-88
2024/02/10 14:03:04;;;;;;;6.00;1.88;;;18.00;59.10;;;;;;6093332;23;20151;-87
2024/02/10 14:08:36;;;;;;;3.20;1.58;;;18.10;58.00;;;;;;6120517;23;20601;-90
2024/02/10 14:11:19;;;;;;;7.80;1.75;;;18.00;59.70;;;;;;6151953;23;20615;-87
2024/02/10 14:13:50;;;;;;;6.10;1.73;;;18.00;59.10;;;;;;6170776;23;20146;-87
2024/02/10 14:16:25;;;;;;;11.55;1.80;;;18.00;59.90;;;;;;6118259;23;20240;-86
2024/02/10 14:18:52;;;;;;;3.75;1.83;;;18.00;58.60;;;;;;6122333;23;20154;-87
2024/02/10 14:21:28;;;;;;;6.47;2.10;;;18.00;58.70;;;;;;6117307;23;20233;-85
2024/02/10 14:23:55;;;;;;;6.43;1.95;;;18.10;58.80;;;;;;6146049;23;20146;-86
2024/02/10 14:26:36;;;;;;;5.30;2.10;;;18.10;60.30;;;;;;6159330;22;20207;-87
2024/02/10 14:29:06;;;;;;;5.97;1.88;;;18.00;59.30;;;;;;6255517;22;20125;-85